Accueil
METAR-TAF:

METAR-TAF

Aéroports :

Épinal, France

Aéroport d'Épinal-Mirecourt

latitude: 48-19-31N, longitude: 6-04-00E, altitude: 330 m

Observation

Le bulletin a été fait il y a 34 minutes, à 13:00 UTC
Vent 15 kt de ouest/sud-ouest
Température 11°C
Humidité 66%
Pression 1018 hPa
Visibilité 10 km ou plus
Quelques nuages à une hauteur de 2900 ft
Nuages épars à une hauteur de 5600 ft
Ciel couvert à une hauteur de 14000 ft

METAR: LFSG 221300Z AUTO 24015KT 9999 FEW029 SCT056 OVC140 11/05 Q1018

Heure: 15:34 (13:34 UTC)


TAF: absent

Observations et prévisions météorologiques de plus de 4000 aéroports (messages METAR et TAF).

Les stations disponibles sont représentées par des disques jaunes et rouges sur la carte.

Passer la souris dessus pour voir le nom de la station.

Cliquer dessus pour voir les observations et prévisions météorologiques.

Pour changer de carte: cliquez sur les boutons verts avec une croix noire pour zoomer, sur le bouton vert avec un tiret pour effectuer un zoom arrière, ou sur les flèches vertes pour les cartes adjacentes.


METAR-TAF: